createdAt,value
2023-03-16T00:01:10.147Z,99860.72
2023-03-16T00:03:37.078Z,99855.63
2023-03-16T00:06:04.562Z,99848.97
2023-03-16T00:08:31.666Z,99848.13
2023-03-16T00:10:58.836Z,99846.53
2023-03-16T00:13:25.893Z,99840.50
2023-03-16T00:16:04.690Z,99832.69
2023-03-16T00:18:39.024Z,99831.94
2023-03-16T00:21:07.044Z,99825.91
2023-03-16T00:23:38.145Z,99809.34
2023-03-16T00:26:09.236Z,99812.09
2023-03-16T00:28:36.985Z,99811.22
2023-03-16T00:31:12.226Z,99804.38
2023-03-16T00:33:40.046Z,99805.41
2023-03-16T00:36:09.593Z,99804.56
2023-03-16T00:38:39.326Z,99792.41
2023-03-16T00:41:09.444Z,99792.41
2023-03-16T00:43:41.240Z,99789.00
2023-03-16T00:46:10.533Z,99782.97
2023-03-16T00:48:40.111Z,99773.41
2023-03-16T00:51:09.874Z,99774.22
2023-03-16T00:53:37.304Z,99766.41
2023-03-16T00:56:04.683Z,99764.72
2023-03-16T00:58:36.153Z,99759.44
2023-03-16T01:01:06.879Z,99750.78
2023-03-16T01:03:34.670Z,99750.78
2023-03-16T01:06:06.663Z,99741.25
2023-03-16T01:08:33.716Z,99739.47
2023-03-16T01:11:22.251Z,99728.91
2023-03-16T01:13:51.004Z,99724.56
2023-03-16T01:16:19.302Z,99718.44
2023-03-16T01:18:47.037Z,99710.63
2023-03-16T01:21:16.905Z,99715.06
2023-03-16T01:23:44.505Z,99701.13
2023-03-16T01:26:11.791Z,99697.56
2023-03-16T01:28:39.246Z,99689.66
2023-03-16T01:31:11.841Z,99687.09
2023-03-16T01:33:39.303Z,99677.50
2023-03-16T01:36:13.240Z,99680.22
2023-03-16T01:38:40.165Z,99672.41
2023-03-16T01:41:07.786Z,99668.81
2023-03-16T01:43:37.731Z,99666.19
2023-03-16T01:46:07.685Z,99661.88
2023-03-16T01:48:56.269Z,99651.31
2023-03-16T01:51:27.954Z,99640.63
2023-03-16T01:53:59.473Z,99632.00
2023-03-16T01:56:40.171Z,99631.13
2023-03-16T01:59:14.357Z,99635.47
2023-03-16T02:01:41.682Z,99621.50
2023-03-16T02:04:25.464Z,99625.00
2023-03-16T02:06:55.285Z,99610.03
2023-03-16T02:09:22.631Z,99616.03
2023-03-16T02:11:50.345Z,99602.09
2023-03-16T02:14:17.363Z,99601.25
2023-03-16T02:16:45.163Z,99590.69
2023-03-16T02:19:20.213Z,99581.94
2023-03-16T02:21:54.830Z,99579.28
2023-03-16T02:24:22.379Z,99575.72
2023-03-16T02:27:10.969Z,99573.00
2023-03-16T02:29:53.168Z,99572.16
2023-03-16T02:32:21.873Z,99570.34
2023-03-16T02:34:48.890Z,99563.25
2023-03-16T02:37:15.912Z,99557.97
2023-03-16T02:39:45.598Z,99552.69
2023-03-16T02:42:17.144Z,99551.03
2023-03-16T02:44:51.216Z,99541.31
2023-03-16T02:47:41.848Z,99539.41
2023-03-16T02:50:10.887Z,99542.91
2023-03-16T02:52:38.923Z,99541.09
2023-03-16T02:55:07.690Z,99541.09
2023-03-16T02:57:34.936Z,99535.72
2023-03-16T03:00:01.790Z,99536.66
2023-03-16T03:02:28.676Z,99537.50
2023-03-16T03:04:55.516Z,99526.97
2023-03-16T03:07:22.431Z,99518.91
2023-03-16T03:09:49.229Z,99517.13
2023-03-16T03:12:16.096Z,99518.81
2023-03-16T03:14:42.881Z,99504.66
2023-03-16T03:17:10.603Z,99497.59
2023-03-16T03:19:37.607Z,99494.94
2023-03-16T03:22:06.623Z,99496.75
2023-03-16T03:24:34.903Z,99496.66
2023-03-16T03:27:06.066Z,99488.75
2023-03-16T03:29:36.367Z,99493.81
2023-03-16T03:32:06.856Z,99487.69
2023-03-16T03:34:33.948Z,99487.69
2023-03-16T03:37:01.389Z,99477.97
2023-03-16T03:39:28.242Z,99476.19
2023-03-16T03:41:55.081Z,99470.78
2023-03-16T03:44:23.323Z,99461.91
2023-03-16T03:46:51.787Z,99459.28
2023-03-16T03:49:18.615Z,99457.38
2023-03-16T03:51:45.504Z,99455.56
2023-03-16T03:54:12.342Z,99456.38
2023-03-16T03:56:39.162Z,99450.19
2023-03-16T03:59:06.000Z,99443.94
2023-03-16T04:01:33.091Z,99438.66
2023-03-16T04:03:59.934Z,99440.13
2023-03-16T04:06:26.847Z,99439.81
2023-03-16T04:08:54.544Z,99438.75
2023-03-16T04:11:22.049Z,99439.25
2023-03-16T04:13:53.621Z,99430.38
2023-03-16T04:16:21.516Z,99424.16
2023-03-16T04:18:48.434Z,99417.28
2023-03-16T04:21:17.483Z,99419.81
2023-03-16T04:23:44.697Z,99409.25
2023-03-16T04:26:11.798Z,99401.31
2023-03-16T04:28:39.093Z,99397.84
2023-03-16T04:31:08.767Z,99390.66
2023-03-16T04:33:37.670Z,99390.44
2023-03-16T04:36:05.880Z,99396.31
2023-03-16T04:38:36.651Z,99399.72
2023-03-16T04:41:05.945Z,99391.03
2023-03-16T04:43:34.641Z,99389.97
2023-03-16T04:46:02.634Z,99381.22
2023-03-16T04:48:30.226Z,99382.91
2023-03-16T04:50:57.115Z,99380.97
2023-03-16T04:53:24.008Z,99374.88
2023-03-16T04:55:51.546Z,99373.91
2023-03-16T04:58:18.438Z,99367.47
2023-03-16T05:00:45.799Z,99366.47
2023-03-16T05:03:12.688Z,99368.28
2023-03-16T05:05:40.083Z,99368.06
2023-03-16T05:08:07.593Z,99367.97
2023-03-16T05:10:34.975Z,99361.69
2023-03-16T05:13:01.862Z,99362.66
2023-03-16T05:15:28.759Z,99358.25
2023-03-16T05:17:56.342Z,99356.31
2023-03-16T05:20:24.243Z,99362.53
2023-03-16T05:22:51.746Z,99358.84
2023-03-16T05:25:20.033Z,99350.81
2023-03-16T05:27:50.005Z,99347.19
2023-03-16T05:30:18.894Z,99344.78
2023-03-16T05:32:46.419Z,99345.31
2023-03-16T05:35:13.973Z,99339.53
2023-03-16T05:37:41.672Z,99342.66
2023-03-16T05:40:23.247Z,99335.44
2023-03-16T05:42:55.026Z,99328.75
2023-03-16T05:45:21.886Z,99325.03
2023-03-16T05:47:49.416Z,99319.50
2023-03-16T05:50:17.166Z,99319.16
2023-03-16T05:52:45.602Z,99316.28
2023-03-16T05:55:14.914Z,99311.75
2023-03-16T05:57:42.378Z,99311.50
2023-03-16T06:00:15.759Z,99306.00
2023-03-16T06:02:51.501Z,99305.75
2023-03-16T06:05:20.248Z,99295.06
2023-03-16T06:07:47.136Z,99294.72
2023-03-16T06:10:14.756Z,99289.44
2023-03-16T06:12:41.635Z,99289.19
2023-03-16T06:15:10.691Z,99274.16
2023-03-16T06:17:39.009Z,99274.78
2023-03-16T06:20:11.520Z,99261.69
2023-03-16T06:22:40.541Z,99262.50
2023-03-16T06:25:08.759Z,99262.25
2023-03-16T06:27:36.046Z,99252.78
2023-03-16T06:30:03.516Z,99254.09
2023-03-16T06:32:30.452Z,99252.53
2023-03-16T06:34:59.755Z,99250.59
2023-03-16T06:37:26.624Z,99256.50
2023-03-16T06:39:54.077Z,99251.69
2023-03-16T06:42:20.906Z,99249.78
2023-03-16T06:44:47.727Z,99250.50
2023-03-16T06:47:14.592Z,99255.31
2023-03-16T06:49:41.758Z,99250.03
2023-03-16T06:52:10.807Z,99254.00
2023-03-16T06:54:37.853Z,99250.38
2023-03-16T06:57:04.896Z,99245.09
2023-03-16T06:59:32.122Z,99245.81
2023-03-16T07:01:59.168Z,99248.47
2023-03-16T07:04:26.063Z,99244.84
2023-03-16T07:06:52.938Z,99238.72
2023-03-16T07:09:19.927Z,99238.00
2023-03-16T07:11:46.845Z,99233.41
2023-03-16T07:14:13.830Z,99235.81
2023-03-16T07:16:40.985Z,99235.13
2023-03-16T07:19:07.907Z,99239.94
2023-03-16T07:21:40.191Z,99240.63
2023-03-16T07:24:09.234Z,99238.22
2023-03-16T07:26:36.754Z,99233.41
2023-03-16T07:29:06.565Z,99229.66
2023-03-16T07:31:35.014Z,99229.78
2023-03-16T07:34:03.929Z,99227.59
2023-03-16T07:36:30.840Z,99218.25
2023-03-16T07:38:57.962Z,99222.78
2023-03-16T07:41:25.693Z,99214.38
2023-03-16T07:43:53.920Z,99212.72
2023-03-16T07:46:21.287Z,99197.09
2023-03-16T07:48:48.235Z,99200.91
2023-03-16T07:51:15.749Z,99195.84
2023-03-16T07:53:42.726Z,99188.91
2023-03-16T07:56:09.730Z,99189.16
2023-03-16T07:58:36.893Z,99185.78
2023-03-16T08:01:04.307Z,99185.78
2023-03-16T08:03:32.424Z,99186.88
2023-03-16T08:06:01.979Z,99187.09
2023-03-16T08:08:28.902Z,99185.41
2023-03-16T08:10:56.763Z,99188.16
2023-03-16T08:13:24.224Z,99182.03
2023-03-16T08:16:02.297Z,99179.50
2023-03-16T08:18:30.428Z,99180.47
2023-03-16T08:20:58.264Z,99179.88
2023-03-16T08:23:26.209Z,99185.97
2023-03-16T08:25:58.383Z,99178.06
2023-03-16T08:28:26.447Z,99171.09
2023-03-16T08:30:56.291Z,99171.09
2023-03-16T08:33:23.882Z,99171.09
2023-03-16T08:35:51.264Z,99164.16
2023-03-16T08:38:19.573Z,99165.22
2023-03-16T08:40:50.070Z,99157.31
2023-03-16T08:43:19.343Z,99159.09
2023-03-16T08:45:47.459Z,99154.91
2023-03-16T08:48:15.203Z,99141.81
2023-03-16T08:50:44.443Z,99142.66
2023-03-16T08:53:13.934Z,99146.25
2023-03-16T08:55:45.398Z,99138.44
2023-03-16T08:58:14.308Z,99136.78
2023-03-16T09:00:41.994Z,99145.66
2023-03-16T09:03:11.589Z,99144.69
2023-03-16T09:05:38.546Z,99139.41
2023-03-16T09:08:06.692Z,99144.56
2023-03-16T09:10:34.066Z,99139.41
2023-03-16T09:13:01.038Z,99146.50
2023-03-16T09:15:29.459Z,99135.09
2023-03-16T09:17:58.356Z,99133.41
2023-03-16T09:20:29.615Z,99126.47
2023-03-16T09:22:57.839Z,99129.31
2023-03-16T09:25:26.451Z,99123.06
2023-03-16T09:27:54.258Z,99122.25
2023-03-16T09:30:21.354Z,99116.97
2023-03-16T09:32:49.361Z,99110.84
2023-03-16T09:35:16.489Z,99107.22
2023-03-16T09:38:01.149Z,99104.72
2023-03-16T09:40:32.270Z,99107.38
2023-03-16T09:43:11.551Z,99097.66
2023-03-16T09:45:55.799Z,99097.75
2023-03-16T09:48:27.664Z,99098.59
2023-03-16T09:51:00.413Z,99094.16
2023-03-16T09:53:38.490Z,99094.16
2023-03-16T09:56:11.218Z,99095.00
2023-03-16T09:58:38.824Z,99097.75
2023-03-16T10:01:40.892Z,99090.81
2023-03-16T10:04:25.892Z,99089.97
2023-03-16T10:07:04.828Z,99086.25
2023-03-16T10:09:55.853Z,99092.59
2023-03-16T10:12:30.616Z,99089.13
2023-03-16T10:15:05.281Z,99074.13
2023-03-16T10:17:42.051Z,99083.00
2023-03-16T10:20:18.010Z,99069.00
2023-03-16T10:22:47.729Z,99068.84
2023-03-16T10:25:44.660Z,99069.09
2023-03-16T10:28:20.199Z,99063.81
2023-03-16T10:30:50.552Z,99066.59
2023-03-16T10:33:30.149Z,99064.03
2023-03-16T10:36:16.039Z,99065.84
2023-03-16T10:38:49.903Z,99068.59
2023-03-16T10:41:20.768Z,99068.72
2023-03-16T10:43:55.996Z,99059.22
2023-03-16T10:46:26.280Z,99068.84
2023-03-16T10:49:01.843Z,99061.06
2023-03-16T10:51:36.878Z,99068.13
2023-03-16T10:54:25.182Z,99062.00
2023-03-16T10:56:53.832Z,99065.34
2023-03-16T10:59:35.459Z,99059.13
2023-03-16T11:02:15.269Z,99064.41
2023-03-16T11:04:42.781Z,99057.34
2023-03-16T11:07:18.042Z,99050.38
2023-03-16T11:09:47.701Z,99048.69
2023-03-16T11:12:24.650Z,99043.41
2023-03-16T11:14:52.440Z,99033.81
2023-03-16T11:17:43.729Z,99029.41
2023-03-16T11:20:23.813Z,99025.91
2023-03-16T11:22:54.903Z,99017.00
2023-03-16T11:25:30.753Z,99023.28
2023-03-16T11:28:12.827Z,99024.22
2023-03-16T11:31:05.504Z,99026.63
2023-03-16T11:33:35.609Z,99018.84
2023-03-16T11:36:21.711Z,99022.56
2023-03-16T11:39:00.857Z,99025.91
2023-03-16T11:41:55.989Z,99021.47
2023-03-16T11:44:44.911Z,99016.31
2023-03-16T11:47:30.600Z,99017.00
2023-03-16T11:50:27.656Z,99018.94
2023-03-16T11:53:14.211Z,99020.72
2023-03-16T11:56:10.143Z,99023.38
2023-03-16T11:58:38.031Z,99020.88
2023-03-16T12:01:23.717Z,99026.28
2023-03-16T12:04:11.448Z,99017.59
2023-03-16T12:06:44.463Z,99009.81
2023-03-16T12:09:44.993Z,99009.69
2023-03-16T12:12:24.214Z,99001.78
2023-03-16T12:15:33.797Z,99000.72
2023-03-16T12:18:16.190Z,98998.81
2023-03-16T12:20:56.581Z,99000.38
2023-03-16T12:23:50.788Z,98997.59
2023-03-16T12:26:19.802Z,98992.31
2023-03-16T12:28:48.602Z,98992.31
2023-03-16T12:31:43.360Z,98991.72
2023-03-16T12:34:28.478Z,98992.56
2023-03-16T12:37:14.697Z,98992.31
2023-03-16T12:40:29.202Z,98995.69
2023-03-16T12:43:24.243Z,98992.31
2023-03-16T12:46:06.494Z,98991.63
2023-03-16T12:48:40.873Z,98990.91
2023-03-16T12:51:08.138Z,98990.06
2023-03-16T12:53:56.188Z,98987.28
2023-03-16T12:56:32.955Z,98980.34
2023-03-16T12:59:06.074Z,98981.28
2023-03-16T13:01:43.999Z,98990.91
2023-03-16T13:04:23.794Z,98992.69
2023-03-16T13:07:03.439Z,98983.94
2023-03-16T13:09:34.560Z,98990.91
2023-03-16T13:12:05.292Z,98979.50
2023-03-16T13:14:43.118Z,98979.38
2023-03-16T13:17:16.742Z,98977.72
2023-03-16T13:19:48.033Z,98978.53
2023-03-16T13:22:29.467Z,98977.56
2023-03-16T13:25:00.928Z,98974.56
2023-03-16T13:27:30.374Z,98976.97
2023-03-16T13:30:00.545Z,98975.56
2023-03-16T13:32:32.486Z,98975.56
2023-03-16T13:35:02.810Z,98969.53
2023-03-16T13:37:30.620Z,98965.94
2023-03-16T13:40:03.330Z,98964.25
2023-03-16T13:42:33.012Z,98964.16
2023-03-16T13:45:11.554Z,98967.88
2023-03-16T13:47:44.124Z,98972.91
2023-03-16T13:50:13.033Z,98955.16
2023-03-16T13:52:40.533Z,98965.00
2023-03-16T13:55:16.515Z,98964.03
2023-03-16T13:57:45.819Z,98953.47
2023-03-16T14:00:44.193Z,98954.31
2023-03-16T14:03:17.990Z,98952.38
2023-03-16T14:05:45.978Z,98952.38
2023-03-16T14:08:19.130Z,98957.66
2023-03-16T14:10:47.188Z,98948.19
2023-03-16T14:13:29.536Z,98956.84
2023-03-16T14:16:13.491Z,98951.56
2023-03-16T14:18:56.208Z,98957.56
2023-03-16T14:21:26.165Z,98954.06
2023-03-16T14:24:06.124Z,98950.81
2023-03-16T14:26:48.384Z,98942.19
2023-03-16T14:29:25.144Z,98947.63
2023-03-16T14:31:52.070Z,98952.03
2023-03-16T14:34:36.475Z,98947.63
2023-03-16T14:37:16.171Z,98955.63
2023-03-16T14:39:43.824Z,98943.41
2023-03-16T14:42:27.888Z,98946.78
2023-03-16T14:44:56.894Z,98944.13
2023-03-16T14:47:31.104Z,98944.84
2023-03-16T14:50:04.776Z,98950.34
2023-03-16T14:52:31.952Z,98955.41
2023-03-16T14:55:03.011Z,98943.16
2023-03-16T14:57:30.762Z,98940.66
2023-03-16T14:59:57.708Z,98945.06
2023-03-16T15:02:30.954Z,98947.47
2023-03-16T15:05:01.477Z,98937.06
2023-03-16T15:07:31.643Z,98940.88
2023-03-16T15:10:10.746Z,98939.94
2023-03-16T15:12:38.242Z,98937.31
2023-03-16T15:15:25.434Z,98942.69
2023-03-16T15:17:55.284Z,98931.28
2023-03-16T15:20:25.992Z,98930.19
2023-03-16T15:22:53.921Z,98935.47
2023-03-16T15:25:38.674Z,98928.53
2023-03-16T15:28:19.146Z,98936.22
2023-03-16T15:30:57.702Z,98933.34
2023-03-16T15:33:26.030Z,98948.56
2023-03-16T15:35:58.957Z,98931.41
2023-03-16T15:38:29.428Z,98933.81
2023-03-16T15:40:56.578Z,98930.44
2023-03-16T15:43:27.500Z,98944.84
2023-03-16T15:45:56.604Z,98941.69
2023-03-16T15:48:24.739Z,98944.09
2023-03-16T15:51:02.410Z,98936.66
2023-03-16T15:53:36.098Z,98940.88
2023-03-16T15:56:09.720Z,98929.94
2023-03-16T15:58:38.369Z,98932.34
2023-03-16T16:01:08.110Z,98940.72
2023-03-16T16:03:35.260Z,98935.19
2023-03-16T16:06:02.664Z,98924.25
2023-03-16T16:08:29.684Z,98931.09
2023-03-16T16:10:57.489Z,98938.63
2023-03-16T16:13:44.770Z,98936.59
2023-03-16T16:16:18.426Z,98938.50
2023-03-16T16:18:46.910Z,98937.72
2023-03-16T16:21:27.200Z,98928.31
2023-03-16T16:23:54.686Z,98931.22
2023-03-16T16:26:55.275Z,98932.66
2023-03-16T16:29:27.461Z,98922.53
2023-03-16T16:31:55.615Z,98922.47
2023-03-16T16:34:27.588Z,98926.28
2023-03-16T16:36:56.274Z,98922.44
2023-03-16T16:39:23.754Z,98920.94
2023-03-16T16:41:54.941Z,98921.28
2023-03-16T16:44:23.846Z,98922.88
2023-03-16T16:46:52.552Z,98919.00
2023-03-16T16:49:31.072Z,98912.53
2023-03-16T16:51:58.633Z,98921.25
2023-03-16T16:54:29.248Z,98918.09
2023-03-16T16:56:58.221Z,98915.63
2023-03-16T16:59:38.262Z,98916.75
2023-03-16T17:02:22.853Z,98915.50
2023-03-16T17:04:51.156Z,98921.53
2023-03-16T17:07:18.346Z,98920.16
2023-03-16T17:09:45.480Z,98918.22
2023-03-16T17:12:22.986Z,98925.75
2023-03-16T17:14:50.994Z,98915.59
2023-03-16T17:17:18.776Z,98921.47
2023-03-16T17:19:47.301Z,98916.78
2023-03-16T17:22:25.035Z,98924.44
2023-03-16T17:24:52.826Z,98925.25
2023-03-16T17:27:27.363Z,98922.78
2023-03-16T17:29:55.826Z,98921.78
2023-03-16T17:32:23.583Z,98926.97
2023-03-16T17:34:51.316Z,98929.72
2023-03-16T17:37:21.408Z,98936.97
2023-03-16T17:39:48.627Z,98939.75
2023-03-16T17:42:18.817Z,98934.69
2023-03-16T17:44:49.027Z,98936.66
2023-03-16T17:47:27.922Z,98941.09
2023-03-16T17:49:55.331Z,98949.16
2023-03-16T17:52:25.791Z,98958.19
2023-03-16T17:54:54.057Z,98959.03
2023-03-16T17:57:32.522Z,98960.00
2023-03-16T18:00:03.285Z,98969.03
2023-03-16T18:02:51.958Z,98962.78
2023-03-16T18:05:27.619Z,98970.72
2023-03-16T18:07:56.921Z,98967.94
2023-03-16T18:10:29.142Z,98967.13
2023-03-16T18:13:18.032Z,98968.09
2023-03-16T18:15:47.210Z,98973.38
2023-03-16T18:18:22.131Z,98965.69
2023-03-16T18:20:51.276Z,98972.75
2023-03-16T18:23:30.349Z,98969.41
2023-03-16T18:26:03.796Z,98975.41
2023-03-16T18:28:32.410Z,98976.00
2023-03-16T18:31:00.795Z,98979.19
2023-03-16T18:33:33.110Z,98980.63
2023-03-16T18:36:03.730Z,98972.28
2023-03-16T18:38:33.893Z,98965.63
2023-03-16T18:41:03.044Z,98977.38
2023-03-16T18:43:29.980Z,98974.09
2023-03-16T18:45:57.275Z,98978.13
2023-03-16T18:48:33.503Z,98977.72
2023-03-16T18:51:01.229Z,98980.09
2023-03-16T18:53:29.372Z,98970.09
2023-03-16T18:55:57.632Z,98981.38
2023-03-16T18:58:25.635Z,98983.75
2023-03-16T19:00:58.472Z,98987.53
2023-03-16T19:03:25.821Z,98980.59
2023-03-16T19:05:54.749Z,98985.44
2023-03-16T19:08:22.418Z,98983.06
2023-03-16T19:10:54.006Z,98985.56
2023-03-16T19:13:22.172Z,98986.69
2023-03-16T19:15:52.505Z,98980.59
2023-03-16T19:18:19.958Z,98979.78
2023-03-16T19:20:50.239Z,98987.19
2023-03-16T19:23:26.203Z,98987.75
2023-03-16T19:25:54.847Z,98981.50
2023-03-16T19:28:39.766Z,98984.56
2023-03-16T19:31:17.005Z,98988.47
2023-03-16T19:33:44.288Z,98987.91
2023-03-16T19:36:24.637Z,98979.94
2023-03-16T19:38:52.701Z,98973.69
2023-03-16T19:41:31.201Z,98971.72
2023-03-16T19:44:06.651Z,98982.34
2023-03-16T19:46:33.894Z,98978.44
2023-03-16T19:49:01.585Z,98987.78
2023-03-16T19:51:29.580Z,98989.31
2023-03-16T19:53:57.045Z,98988.06
2023-03-16T19:56:26.935Z,98998.53
2023-03-16T19:58:55.115Z,99001.63
2023-03-16T20:01:30.436Z,99001.34
2023-03-16T20:03:59.889Z,98995.78
2023-03-16T20:06:27.656Z,98992.97
2023-03-16T20:09:16.263Z,98996.19
2023-03-16T20:11:45.595Z,99001.50
2023-03-16T20:14:32.383Z,98997.59
2023-03-16T20:17:00.907Z,99003.75
2023-03-16T20:19:29.347Z,98998.28
2023-03-16T20:21:57.890Z,98998.53
2023-03-16T20:24:28.436Z,99002.22
2023-03-16T20:26:55.518Z,98999.72
2023-03-16T20:29:35.156Z,99005.53
2023-03-16T20:32:07.582Z,99008.78
2023-03-16T20:34:35.008Z,99009.34
2023-03-16T20:37:02.862Z,99003.59
2023-03-16T20:39:30.013Z,99008.34
2023-03-16T20:41:57.430Z,99013.91
2023-03-16T20:44:25.776Z,99011.41
2023-03-16T20:46:52.947Z,99021.47
2023-03-16T20:49:23.342Z,99010.13
2023-03-16T20:51:52.997Z,99015.56
2023-03-16T20:54:23.617Z,99017.50
2023-03-16T20:56:52.035Z,99012.19
2023-03-16T20:59:24.334Z,99013.28
2023-03-16T21:01:55.206Z,99017.72
2023-03-16T21:04:26.237Z,99021.75
2023-03-16T21:06:54.733Z,99027.50
2023-03-16T21:09:23.695Z,99019.09
2023-03-16T21:11:51.804Z,99028.31
2023-03-16T21:14:23.834Z,99019.06
2023-03-16T21:16:51.802Z,99015.81
2023-03-16T21:19:21.578Z,99017.22
2023-03-16T21:21:52.198Z,99018.28
2023-03-16T21:24:19.737Z,99025.97
2023-03-16T21:26:47.760Z,99025.00
2023-03-16T21:29:19.050Z,99019.22
2023-03-16T21:31:46.484Z,99023.72
2023-03-16T21:34:27.672Z,99014.59
2023-03-16T21:36:54.836Z,99019.19
2023-03-16T21:39:25.599Z,99020.31
2023-03-16T21:41:54.744Z,99020.19
2023-03-16T21:44:22.156Z,99025.88
2023-03-16T21:46:52.930Z,99039.16
2023-03-16T21:49:22.165Z,99038.50
2023-03-16T21:51:51.574Z,99040.16
2023-03-16T21:54:19.990Z,99036.34
2023-03-16T21:56:50.823Z,99032.56
2023-03-16T21:59:18.129Z,99026.72
2023-03-16T22:02:00.769Z,99027.56
2023-03-16T22:04:29.471Z,99036.44
2023-03-16T22:06:56.495Z,99045.66
2023-03-16T22:09:25.353Z,99043.00
2023-03-16T22:11:52.564Z,99042.03
2023-03-16T22:14:19.732Z,99043.84
2023-03-16T22:16:47.001Z,99047.47
2023-03-16T22:19:18.260Z,99044.28
2023-03-16T22:21:47.538Z,99049.44
2023-03-16T22:24:19.981Z,99054.94
2023-03-16T22:26:49.509Z,99060.28
2023-03-16T22:29:31.429Z,99052.19
2023-03-16T22:32:05.673Z,99049.53
2023-03-16T22:34:46.723Z,99065.94
2023-03-16T22:37:19.043Z,99072.97
2023-03-16T22:39:46.444Z,99075.31
2023-03-16T22:42:19.624Z,99083.69
2023-03-16T22:44:47.257Z,99075.59
2023-03-16T22:47:26.665Z,99079.56
2023-03-16T22:49:54.280Z,99080.25
2023-03-16T22:52:28.599Z,99085.41
2023-03-16T22:54:56.236Z,99088.66
2023-03-16T22:57:23.315Z,99083.91
2023-03-16T22:59:51.309Z,99082.63
2023-03-16T23:02:21.233Z,99081.53
2023-03-16T23:04:48.136Z,99088.22
2023-03-16T23:07:15.364Z,99087.81
2023-03-16T23:09:42.312Z,99084.72
2023-03-16T23:12:19.638Z,99091.53
2023-03-16T23:14:46.603Z,99088.47
2023-03-16T23:17:22.827Z,99082.00
2023-03-16T23:19:49.811Z,99080.47
2023-03-16T23:22:17.281Z,99081.84
2023-03-16T23:24:44.179Z,99088.38
2023-03-16T23:27:20.094Z,99092.28
2023-03-16T23:29:47.195Z,99098.00
2023-03-16T23:32:17.271Z,99094.78
2023-03-16T23:34:44.754Z,99092.38
2023-03-16T23:37:12.189Z,99098.91
2023-03-16T23:39:40.100Z,99097.25
2023-03-16T23:42:07.797Z,99099.31
2023-03-16T23:44:35.056Z,99105.88
2023-03-16T23:47:02.426Z,99104.44
2023-03-16T23:49:33.060Z,99103.06
2023-03-16T23:52:01.920Z,99101.38
2023-03-16T23:54:31.898Z,99100.78
2023-03-16T23:56:59.574Z,99108.28
2023-03-16T23:59:26.883Z,99108.56
